Time;durP1;ratioP1;P1;durP2;ratioP2;P2;SDS_P1;SDS_P2;PMS_P1;PMS_P2;Temp;Humidity;BMP_temperature;BMP_pressure;BME280_temperature;BME280_humidity;BME280_pressure;Samples;Min_cycle;Max_cycle;Signal;HPM_P1;HPM_P2
2022/08/30 00:01:02;;;;;;;;;;;17.80;99.90;;;;;;5195269;28;19901;-60
2022/08/30 00:03:46;;;;;;;;;;;17.70;99.90;;;;;;5183078;28;19936;-61
2022/08/30 00:06:21;;;;;;;;;;;17.60;99.90;;;;;;5168506;28;20167;-61
2022/08/30 00:08:53;;;;;;;;;;;17.60;99.90;;;;;;5177449;28;19909;-61
2022/08/30 00:11:25;;;;;;;;;;;17.60;99.90;;;;;;5195318;28;19909;-60
2022/08/30 00:13:56;;;;;;;;;;;17.50;99.90;;;;;;5196631;28;19909;-60
2022/08/30 00:16:32;;;;;;;;;;;17.50;99.90;;;;;;5184645;28;19913;-60
2022/08/30 00:19:06;;;;;;;;;;;17.50;99.90;;;;;;5161609;28;19900;-60
2022/08/30 00:21:38;;;;;;;;;;;17.60;99.90;;;;;;5178003;28;19901;-60
2022/08/30 00:24:11;;;;;;;;;;;17.60;99.90;;;;;;5195241;28;19904;-60
2022/08/30 00:26:45;;;;;;;;;;;17.60;99.90;;;;;;5175263;28;19905;-60
2022/08/30 00:29:16;;;;;;;;;;;17.60;99.90;;;;;;5176568;28;20259;-60
2022/08/30 00:31:51;;;;;;;;;;;17.70;99.90;;;;;;5197770;28;19909;-61
2022/08/30 00:34:27;;;;;;;;;;;17.70;99.90;;;;;;5177472;28;19907;-61
2022/08/30 00:36:59;;;;;;;;;;;17.60;99.90;;;;;;5175860;28;19911;-60
2022/08/30 00:39:30;;;;;;;;;;;17.50;99.90;;;;;;5193640;28;19923;-60
2022/08/30 00:42:04;;;;;;;;;;;17.50;99.90;;;;;;5193084;28;19912;-61
2022/08/30 00:44:36;;;;;;;;;;;17.40;99.90;;;;;;5193218;28;19905;-61
2022/08/30 00:47:08;;;;;;;;;;;17.40;99.90;;;;;;5188892;28;19905;-60
2022/08/30 00:49:43;;;;;;;;;;;17.30;99.90;;;;;;5194959;28;19915;-60
2022/08/30 00:52:15;;;;;;;;;;;17.30;99.90;;;;;;5193852;28;19909;-61
2022/08/30 00:54:50;;;;;;;;;;;17.20;99.90;;;;;;5194704;28;19901;-60
2022/08/30 00:57:24;;;;;;;;;;;17.20;99.90;;;;;;5194750;28;20071;-60
2022/08/30 00:59:55;;;;;;;;;;;17.20;99.90;;;;;;5173177;28;20240;-60
2022/08/30 01:02:30;;;;;;;;;;;17.20;99.90;;;;;;5189651;28;19901;-60
2022/08/30 01:05:04;;;;;;;;;;;17.20;99.90;;;;;;5185516;28;20114;-60
2022/08/30 01:07:36;;;;;;;;;;;17.10;99.90;;;;;;5194887;28;19919;-60
2022/08/30 01:10:11;;;;;;;;;;;17.00;99.90;;;;;;5195553;28;20163;-60
2022/08/30 01:12:46;;;;;;;;;;;17.00;99.90;;;;;;5194539;28;19913;-61
2022/08/30 01:15:17;;;;;;;;;;;16.90;99.90;;;;;;5192768;28;19909;-60
2022/08/30 01:17:48;;;;;;;;;;;16.90;99.90;;;;;;5193934;28;19908;-61
2022/08/30 01:20:22;;;;;;;;;;;16.90;99.90;;;;;;5195089;28;19911;-61
2022/08/30 01:22:53;;;;;;;;;;;17.00;99.90;;;;;;5175514;28;19901;-61
2022/08/30 01:25:28;;;;;;;;;;;17.00;99.90;;;;;;5191810;28;20190;-60
2022/08/30 01:28:01;;;;;;;;;;;17.00;99.90;;;;;;5172947;28;19901;-60
2022/08/30 01:30:34;;;;;;;;;;;17.10;99.90;;;;;;5172676;28;20193;-61
2022/08/30 01:33:05;;;;;;;;;;;17.10;99.90;;;;;;5188330;28;19982;-61
2022/08/30 01:35:39;;;;;;;;;;;17.10;99.90;;;;;;5192990;28;19907;-61
2022/08/30 01:38:14;;;;;;;;;;;17.10;99.90;;;;;;5192661;28;20060;-61
2022/08/30 01:40:47;;;;;;;;;;;17.10;99.90;;;;;;5196328;28;19913;-61
2022/08/30 01:43:21;;;;;;;;;;;17.10;99.90;;;;;;5176913;28;19902;-61
2022/08/30 01:45:52;;;;;;;;;;;17.00;99.90;;;;;;5159539;28;19907;-61
2022/08/30 01:48:27;;;;;;;;;;;17.00;99.90;;;;;;5178153;28;20198;-61
2022/08/30 01:50:58;;;;;;;;;;;17.00;99.90;;;;;;5196245;28;19989;-61
2022/08/30 01:53:31;;;;;;;;;;;17.00;99.90;;;;;;5193682;28;19909;-61
2022/08/30 01:56:04;;;;;;;;;;;17.00;99.90;;;;;;5198121;28;20367;-62
2022/08/30 01:58:36;;;;;;;;;;;17.00;99.90;;;;;;5197933;28;20085;-61
2022/08/30 02:01:12;;;;;;;;;;;16.90;99.90;;;;;;5180071;28;19919;-61
2022/08/30 02:03:43;;;;;;;;;;;16.70;99.90;;;;;;5197707;28;20131;-64
2022/08/30 02:06:16;;;;;;;;;;;16.60;99.90;;;;;;5189378;28;19923;-60
2022/08/30 02:08:53;;;;;;;;;;;16.70;99.90;;;;;;5198097;28;19901;-62
2022/08/30 02:11:24;;;;;;;;;;;16.70;99.90;;;;;;5163702;28;20120;-61
2022/08/30 02:13:58;;;;;;;;;;;16.60;99.90;;;;;;5192645;28;19907;-61
2022/08/30 02:16:32;;;;;;;;;;;16.60;99.90;;;;;;5198411;28;19909;-61
2022/08/30 02:19:08;;;;;;;;;;;16.50;99.90;;;;;;5198093;28;19927;-61
2022/08/30 02:21:39;;;;;;;;;;;16.50;99.90;;;;;;5183033;28;20113;-62
2022/08/30 02:24:10;;;;;;;;;;;16.40;99.90;;;;;;5180436;28;20155;-61
2022/08/30 02:26:41;;;;;;;;;;;16.40;99.90;;;;;;5179613;28;20248;-61
2022/08/30 02:29:12;;;;;;;;;;;16.30;99.90;;;;;;5179196;28;19911;-61
2022/08/30 02:31:43;;;;;;;;;;;16.30;99.90;;;;;;5179418;28;20096;-60
2022/08/30 02:34:15;;;;;;;;;;;16.20;99.90;;;;;;5196288;28;20073;-60
2022/08/30 02:36:49;;;;;;;;;;;16.10;99.90;;;;;;5192921;28;19901;-60
2022/08/30 02:39:23;;;;;;;;;;;16.10;99.90;;;;;;5197348;28;19912;-61
2022/08/30 02:41:58;;;;;;;;;;;16.10;99.90;;;;;;5180309;28;19901;-61
2022/08/30 02:44:31;;;;;;;;;;;16.10;99.90;;;;;;5194747;28;19911;-61
2022/08/30 02:47:03;;;;;;;;;;;16.10;99.90;;;;;;5179723;28;20113;-61
2022/08/30 02:49:36;;;;;;;;;;;16.10;99.90;;;;;;5197627;28;19904;-60
2022/08/30 02:52:07;;;;;;;;;;;16.00;99.90;;;;;;5211575;28;19940;-61
2022/08/30 02:54:38;;;;;;;;;;;16.00;99.90;;;;;;5193242;28;19901;-61
2022/08/30 02:57:12;;;;;;;;;;;16.10;99.90;;;;;;5194726;28;19916;-60
2022/08/30 02:59:46;;;;;;;;;;;16.10;99.90;;;;;;5200196;28;19901;-60
2022/08/30 03:02:17;;;;;;;;;;;16.10;99.90;;;;;;5193520;28;19999;-61
2022/08/30 03:04:49;;;;;;;;;;;16.20;99.90;;;;;;5180180;28;19909;-61
2022/08/30 03:07:22;;;;;;;;;;;16.20;99.90;;;;;;5183645;28;20228;-61
2022/08/30 03:09:58;;;;;;;;;;;16.20;99.90;;;;;;5198772;28;20111;-61
2022/08/30 03:12:38;;;;;;;;;;;16.10;99.90;;;;;;5194638;28;20139;-61
2022/08/30 03:15:11;;;;;;;;;;;16.10;99.90;;;;;;5196050;28;19909;-61
2022/08/30 03:17:42;;;;;;;;;;;16.00;99.90;;;;;;5197120;28;19901;-61
2022/08/30 03:20:16;;;;;;;;;;;16.00;99.90;;;;;;5194057;28;19924;-61
2022/08/30 03:22:47;;;;;;;;;;;16.00;99.90;;;;;;5194282;28;19907;-61
2022/08/30 03:25:22;;;;;;;;;;;16.10;99.90;;;;;;5195352;28;20075;-64
2022/08/30 03:27:53;;;;;;;;;;;16.20;99.90;;;;;;5188661;28;19901;-60
2022/08/30 03:30:26;;;;;;;;;;;16.20;99.90;;;;;;5177461;28;20300;-60
2022/08/30 03:32:57;;;;;;;;;;;16.30;99.90;;;;;;5177236;28;20237;-61
2022/08/30 03:35:31;;;;;;;;;;;16.30;99.90;;;;;;5196810;28;20353;-61
2022/08/30 03:38:02;;;;;;;;;;;16.30;99.90;;;;;;5178333;28;19907;-61
2022/08/30 03:40:36;;;;;;;;;;;16.30;99.90;;;;;;5196433;28;19908;-61
2022/08/30 03:43:07;;;;;;;;;;;16.50;99.90;;;;;;5179258;28;20129;-61
2022/08/30 03:45:38;;;;;;;;;;;16.70;99.90;;;;;;5192768;28;20220;-61
2022/08/30 03:48:12;;;;;;;;;;;16.90;99.90;;;;;;5174014;28;19905;-61
2022/08/30 03:50:45;;;;;;;;;;;17.10;99.90;;;;;;5175815;28;19908;-61
2022/08/30 03:53:16;;;;;;;;;;;17.10;99.90;;;;;;5158163;28;20209;-61
2022/08/30 03:55:47;;;;;;;;;;;17.10;99.90;;;;;;5157500;28;20272;-61
2022/08/30 03:58:23;;;;;;;;;;;17.10;99.90;;;;;;5177308;28;19902;-61
2022/08/30 04:00:57;;;;;;;;;;;17.00;99.90;;;;;;5193677;28;20106;-61
2022/08/30 04:03:30;;;;;;;;;;;16.90;99.90;;;;;;5195037;28;20174;-61
2022/08/30 04:06:02;;;;;;;;;;;16.80;99.90;;;;;;5167568;28;19913;-61
2022/08/30 04:08:33;;;;;;;;;;;16.70;99.90;;;;;;5179411;28;19901;-61
2022/08/30 04:11:07;;;;;;;;;;;16.70;99.90;;;;;;5194717;28;20308;-61
2022/08/30 04:13:38;;;;;;;;;;;16.70;99.90;;;;;;5193468;28;19913;-61
2022/08/30 04:16:09;;;;;;;;;;;16.70;99.90;;;;;;5196468;28;19908;-61
2022/08/30 04:18:40;;;;;;;;;;;16.60;99.90;;;;;;5183390;28;20154;-61
2022/08/30 04:21:14;;;;;;;;;;;16.50;99.90;;;;;;5214260;28;20209;-61
2022/08/30 04:23:46;;;;;;;;;;;16.40;99.90;;;;;;5216036;28;19915;-61
2022/08/30 04:26:17;;;;;;;;;;;16.30;99.90;;;;;;5211515;28;19905;-62
2022/08/30 04:28:51;;;;;;;;;;;16.20;99.90;;;;;;5194935;28;19912;-61
2022/08/30 04:31:22;;;;;;;;;;;16.20;99.90;;;;;;5192077;28;19900;-61
2022/08/30 04:33:55;;;;;;;;;;;16.20;99.90;;;;;;5196240;28;19971;-61
2022/08/30 04:36:28;;;;;;;;;;;16.20;99.90;;;;;;5195804;28;20143;-61
2022/08/30 04:38:59;;;;;;;;;;;16.30;99.90;;;;;;5195780;28;19900;-61
2022/08/30 04:41:30;;;;;;;;;;;16.30;99.90;;;;;;5203773;28;19971;-61
2022/08/30 04:44:02;;;;;;;;;;;16.30;99.90;;;;;;5189564;28;20016;-62
2022/08/30 04:46:36;;;;;;;;;;;16.30;99.90;;;;;;5175063;28;19901;-62
2022/08/30 04:49:07;;;;;;;;;;;16.30;99.90;;;;;;5173956;28;19908;-61
2022/08/30 04:51:39;;;;;;;;;;;16.40;99.90;;;;;;5187969;28;19909;-61
2022/08/30 04:54:11;;;;;;;;;;;16.60;99.90;;;;;;5193973;28;19905;-61
2022/08/30 04:56:44;;;;;;;;;;;16.90;99.90;;;;;;5179813;28;19901;-61
2022/08/30 04:59:17;;;;;;;;;;;17.10;99.90;;;;;;5190086;28;20128;-61
2022/08/30 05:01:51;;;;;;;;;;;17.20;99.90;;;;;;5195490;28;19908;-61
2022/08/30 05:04:27;;;;;;;;;;;17.30;99.90;;;;;;5184943;28;19901;-61
2022/08/30 05:07:00;;;;;;;;;;;17.40;99.90;;;;;;5196515;28;20105;-62
2022/08/30 05:09:36;;;;;;;;;;;17.50;99.90;;;;;;5193021;28;20008;-61
2022/08/30 05:12:08;;;;;;;;;;;17.50;99.90;;;;;;5207238;28;19917;-63
2022/08/30 05:14:39;;;;;;;;;;;17.60;99.90;;;;;;5195533;28;20312;-61
2022/08/30 05:17:10;;;;;;;;;;;17.80;99.90;;;;;;5181208;28;19936;-62
2022/08/30 05:19:41;;;;;;;;;;;17.80;99.90;;;;;;5197610;28;20360;-62
2022/08/30 05:22:15;;;;;;;;;;;18.00;99.90;;;;;;5177159;28;20243;-62
2022/08/30 05:24:46;;;;;;;;;;;18.10;99.90;;;;;;5198886;28;20197;-61
2022/08/30 05:27:20;;;;;;;;;;;18.30;99.90;;;;;;5198231;28;20241;-62
2022/08/30 05:29:51;;;;;;;;;;;18.50;99.90;;;;;;5197912;28;19901;-61
2022/08/30 05:32:25;;;;;;;;;;;18.70;99.90;;;;;;5197637;28;19959;-61
2022/08/30 05:34:56;;;;;;;;;;;18.90;99.90;;;;;;5180869;28;19920;-62
2022/08/30 05:37:27;;;;;;;;;;;19.20;99.90;;;;;;5197266;28;19918;-62
2022/08/30 05:40:04;;;;;;;;;;;19.40;99.90;;;;;;5198279;28;19901;-62
2022/08/30 05:42:40;;;;;;;;;;;19.80;99.90;;;;;;5193227;28;19902;-62
2022/08/30 05:45:13;;;;;;;;;;;20.00;99.90;;;;;;5193263;28;20082;-62
2022/08/30 05:47:44;;;;;;;;;;;20.30;99.90;;;;;;5178317;28;19908;-62
2022/08/30 05:50:17;;;;;;;;;;;20.60;99.90;;;;;;5176119;28;19936;-62
2022/08/30 05:52:48;;;;;;;;;;;20.90;99.90;;;;;;5196863;28;19923;-62
2022/08/30 05:55:19;;;;;;;;;;;21.00;99.90;;;;;;5197724;28;20306;-62
2022/08/30 05:57:50;;;;;;;;;;;21.30;99.90;;;;;;5178591;28;20003;-63
2022/08/30 06:00:22;;;;;;;;;;;21.50;99.90;;;;;;5195895;28;19901;-62
2022/08/30 06:02:53;;;;;;;;;;;21.50;99.90;;;;;;5198577;28;20452;-62
2022/08/30 06:05:24;;;;;;;;;;;21.60;99.90;;;;;;5184174;28;19913;-62
2022/08/30 06:07:55;;;;;;;;;;;21.80;99.90;;;;;;5180452;28;20080;-62
2022/08/30 06:10:26;;;;;;;;;;;21.60;99.90;;;;;;5182635;28;20079;-62
2022/08/30 06:12:57;;;;;;;;;;;21.30;99.90;;;;;;5193043;28;20218;-62
2022/08/30 06:15:31;;;;;;;;;;;21.10;99.90;;;;;;5187473;28;20153;-62
2022/08/30 06:18:02;;;;;;;;;;;21.40;99.90;;;;;;5179975;28;19909;-62
2022/08/30 06:20:37;;;;;;;;;;;21.30;99.90;;;;;;5197122;28;19901;-62
2022/08/30 06:23:09;;;;;;;;;;;21.20;99.90;;;;;;5199472;28;19901;-62
2022/08/30 06:25:42;;;;;;;;;;;21.60;99.90;;;;;;5195583;28;19905;-62
2022/08/30 06:28:19;;;;;;;;;;;21.80;99.90;;;;;;5197595;28;19907;-62
2022/08/30 06:30:53;;;;;;;;;;;22.00;99.90;;;;;;5196282;28;19901;-62
2022/08/30 06:33:27;;;;;;;;;;;21.90;99.90;;;;;;5198147;28;20102;-62
2022/08/30 06:36:04;;;;;;;;;;;21.60;99.90;;;;;;5156202;28;19913;-62
2022/08/30 06:38:40;;;;;;;;;;;21.40;99.90;;;;;;5159798;28;19901;-61
2022/08/30 06:41:15;;;;;;;;;;;21.60;99.90;;;;;;5159778;28;19909;-61
2022/08/30 06:43:46;;;;;;;;;;;22.10;99.90;;;;;;5190834;28;20015;-62
2022/08/30 06:46:21;;;;;;;;;;;22.20;99.90;;;;;;5182120;28;20202;-62
2022/08/30 06:48:56;;;;;;;;;;;22.40;99.90;;;;;;5189502;28;19908;-61
2022/08/30 06:51:30;;;;;;;;;;;21.80;99.90;;;;;;5199641;28;20185;-61
2022/08/30 06:54:02;;;;;;;;;;;21.40;99.90;;;;;;5196108;28;19916;-62
2022/08/30 06:56:33;;;;;;;;;;;21.40;99.90;;;;;;5194633;28;19954;-62
2022/08/30 06:59:04;;;;;;;;;;;22.10;99.90;;;;;;5196824;28;19919;-62
2022/08/30 07:01:35;;;;;;;;;;;22.40;99.90;;;;;;5196338;28;20303;-62
2022/08/30 07:04:09;;;;;;;;;;;22.40;99.90;;;;;;5196237;28;20320;-62
2022/08/30 07:06:40;;;;;;;;;;;22.10;99.90;;;;;;5186480;28;19913;-61
2022/08/30 07:09:19;;;;;;;;;;;21.80;99.90;;;;;;5215816;28;19907;-61
2022/08/30 07:11:53;;;;;;;;;;;22.10;99.90;;;;;;5212738;28;19911;-62
2022/08/30 07:14:27;;;;;;;;;;;22.90;99.90;;;;;;5195266;28;19905;-62
2022/08/30 07:16:58;;;;;;;;;;;22.50;99.90;;;;;;5195985;28;19916;-61
2022/08/30 07:19:29;;;;;;;;;;;22.10;99.90;;;;;;5196578;28;20146;-61
2022/08/30 07:22:02;;;;;;;;;;;22.20;99.90;;;;;;5195354;28;20221;-61
2022/08/30 07:24:33;;;;;;;;;;;21.90;99.90;;;;;;5195274;28;19911;-61
2022/08/30 07:27:06;;;;;;;;;;;21.90;99.90;;;;;;5196615;28;20228;-61
2022/08/30 07:29:37;;;;;;;;;;;22.40;99.90;;;;;;5195019;28;19901;-62
2022/08/30 07:32:09;;;;;;;;;;;22.40;99.90;;;;;;5175596;28;19913;-62
2022/08/30 07:34:40;;;;;;;;;;;22.50;99.90;;;;;;5194451;28;19905;-62
2022/08/30 07:37:13;;;;;;;;;;;22.80;99.90;;;;;;5176796;28;20240;-62
2022/08/30 07:39:45;;;;;;;;;;;22.90;99.90;;;;;;5178401;28;20138;-62
2022/08/30 07:42:16;;;;;;;;;;;22.90;99.90;;;;;;5194889;28;19901;-62
2022/08/30 07:44:50;;;;;;;;;;;22.80;99.90;;;;;;5181988;28;20413;-62
2022/08/30 07:47:21;;;;;;;;;;;22.90;99.90;;;;;;5196570;28;20278;-62
2022/08/30 07:49:57;;;;;;;;;;;23.50;99.90;;;;;;5178197;28;20084;-62
2022/08/30 07:52:28;;;;;;;;;;;24.00;99.90;;;;;;5195743;28;19909;-62
2022/08/30 07:55:05;;;;;;;;;;;23.40;99.90;;;;;;5194691;28;19905;-62
2022/08/30 07:57:36;;;;;;;;;;;23.20;99.90;;;;;;5195250;28;19915;-62
2022/08/30 08:00:08;;;;;;;;;;;23.40;99.90;;;;;;5194570;28;19901;-61
2022/08/30 08:02:40;;;;;;;;;;;23.70;99.90;;;;;;5194891;28;20027;-61
2022/08/30 08:05:13;;;;;;;;;;;24.00;99.90;;;;;;5179981;28;19913;-62
2022/08/30 08:07:44;;;;;;;;;;;24.10;99.90;;;;;;5184041;28;20205;-61
2022/08/30 08:10:15;;;;;;;;;;;23.90;99.90;;;;;;5176431;28;19923;-62
2022/08/30 08:12:46;;;;;;;;;;;24.20;99.90;;;;;;5166056;28;19913;-62
2022/08/30 08:15:20;;;;;;;;;;;24.50;99.90;;;;;;5199141;28;19919;-61
2022/08/30 08:17:54;;;;;;;;;;;24.40;99.90;;;;;;5179373;28;20225;-62
2022/08/30 08:20:25;;;;;;;;;;;24.50;99.90;;;;;;5202985;28;19905;-62
2022/08/30 08:22:58;;;;;;;;;;;25.30;99.90;;;;;;5194562;28;19901;-63
2022/08/30 08:25:34;;;;;;;;;;;26.10;99.90;;;;;;5194210;28;19905;-62
2022/08/30 08:28:05;;;;;;;;;;;26.70;99.90;;;;;;5194559;28;19901;-66
2022/08/30 08:30:36;;;;;;;;;;;27.10;99.90;;;;;;5178797;28;19901;-62
2022/08/30 08:33:12;;;;;;;;;;;26.40;99.90;;;;;;5193496;28;20267;-62
2022/08/30 08:35:45;;;;;;;;;;;26.00;99.90;;;;;;5193593;28;19912;-62
2022/08/30 08:38:16;;;;;;;;;;;25.70;99.90;;;;;;5175007;28;20110;-61
2022/08/30 08:41:05;;;;;;;;;;;25.90;99.90;;;;;;5175136;28;19902;-62
2022/08/30 08:43:37;;;;;;;;;;;26.50;99.90;;;;;;5187045;28;19905;-61
2022/08/30 08:46:11;;;;;;;;;;;26.80;99.90;;;;;;5194295;28;19901;-62
2022/08/30 08:48:53;;;;;;;;;;;27.20;99.90;;;;;;5194221;28;19901;-62
2022/08/30 08:54:19;;;;;;;;;;;27.70;99.90;;;;;;5192694;28;19913;-62
2022/08/30 08:56:55;;;;;;;;;;;27.50;99.90;;;;;;5196193;28;19901;-62
2022/08/30 08:59:26;;;;;;;;;;;27.00;99.90;;;;;;5209588;28;20130;-62
2022/08/30 09:02:04;;;;;;;;;;;26.90;99.90;;;;;;5203404;28;19911;-62
2022/08/30 09:04:36;;;;;;;;;;;27.40;99.90;;;;;;5183837;28;19923;-63
2022/08/30 09:07:20;;;;;;;;;;;28.10;99.90;;;;;;5195047;28;19908;-63
2022/08/30 09:09:54;;;;;;;;;;;27.50;99.90;;;;;;5193279;28;19901;-63
2022/08/30 09:12:26;;;;;;;;;;;27.40;99.90;;;;;;5176752;28;19939;-62
2022/08/30 09:15:05;;;;;;;;;;;28.20;99.90;;;;;;5176721;28;20110;-62
2022/08/30 09:18:00;;;;;;;;;;;28.40;99.90;;;;;;5195232;28;20125;-62
2022/08/30 09:20:35;;;;;;;;;;;28.70;99.90;;;;;;5192453;28;20222;-62
2022/08/30 09:23:12;;;;;;;;;;;28.90;99.90;;;;;;5195012;28;19923;-62
2022/08/30 09:26:01;;;;;;;;;;;28.70;99.90;;;;;;5175671;28;19905;-62
2022/08/30 09:28:34;;;;;;;;;;;28.80;99.90;;;;;;5192979;28;20121;-63
2022/08/30 09:31:23;;;;;;;;;;;28.40;99.90;;;;;;5194313;28;20403;-61
2022/08/30 09:33:54;;;;;;;;;;;28.00;99.90;;;;;;5192492;28;20227;-61
2022/08/30 09:36:26;;;;;;;;;;;27.70;99.90;;;;;;5182097;28;19902;-62
2022/08/30 09:39:01;;;;;;;;;;;27.70;99.90;;;;;;5172810;28;19901;-62
2022/08/30 09:41:42;;;;;;;;;;;28.00;99.90;;;;;;5174406;28;19912;-62
2022/08/30 09:44:21;;;;;;;;;;;28.00;99.90;;;;;;5191244;28;19939;-62
2022/08/30 09:46:59;;;;;;;;;;;28.00;99.90;;;;;;5175476;28;20215;-62
2022/08/30 09:49:35;;;;;;;;;;;29.30;99.90;;;;;;5193730;28;19901;-62
2022/08/30 09:52:09;;;;;;;;;;;30.00;99.90;;;;;;5192789;28;19907;-62
2022/08/30 09:55:00;;;;;;;;;;;30.50;99.90;;;;;;5192459;28;19905;-62
2022/08/30 09:57:32;;;;;;;;;;;30.10;99.90;;;;;;5162133;28;19901;-62
2022/08/30 10:00:03;;;;;;;;;;;29.10;99.90;;;;;;5191365;28;19901;-63
2022/08/30 10:02:46;;;;;;;;;;;28.80;99.90;;;;;;5184511;28;19902;-63
2022/08/30 10:05:19;;;;;;;;;;;27.90;99.90;;;;;;5178285;28;20361;-62
2022/08/30 10:08:11;;;;;;;;;;;28.00;99.90;;;;;;5183175;28;19912;-62
2022/08/30 10:10:48;;;;;;;;;;;28.00;99.90;;;;;;5197786;28;20254;-62
2022/08/30 10:13:45;;;;;;;;;;;28.30;99.90;;;;;;5191551;28;19913;-62
2022/08/30 10:16:21;;;;;;;;;;;29.50;99.90;;;;;;5190295;28;20197;-62
2022/08/30 10:19:11;;;;;;;;;;;30.10;99.90;;;;;;5195248;28;19975;-62
2022/08/30 10:21:45;;;;;;;;;;;30.80;99.90;;;;;;5198368;28;19944;-63
2022/08/30 10:24:23;;;;;;;;;;;31.80;99.90;;;;;;5198160;28;20206;-62
2022/08/30 10:27:01;;;;;;;;;;;32.80;99.90;;;;;;5198511;28;19907;-63
2022/08/30 10:29:41;;;;;;;;;;;32.60;99.90;;;;;;5197606;28;20148;-61
2022/08/30 10:32:21;;;;;;;;;;;32.30;99.90;;;;;;5179412;28;19905;-62
2022/08/30 10:35:21;;;;;;;;;;;31.40;99.90;;;;;;5183045;28;20141;-62
2022/08/30 10:37:57;;;;;;;;;;;32.70;99.90;;;;;;5194587;28;19966;-63
2022/08/30 10:43:45;;;;;;;;;;;33.30;99.90;;;;;;5195858;28;20264;-62
2022/08/30 10:46:33;;;;;;;;;;;32.30;99.90;;;;;;5176010;28;19901;-62
2022/08/30 10:49:09;;;;;;;;;;;30.50;99.90;;;;;;5179158;28;19909;-62
2022/08/30 10:51:51;;;;;;;;;;;30.40;99.90;;;;;;5197431;28;19901;-62
2022/08/30 10:54:30;;;;;;;;;;;30.30;99.90;;;;;;5176207;28;19913;-61
2022/08/30 10:57:07;;;;;;;;;;;31.90;99.90;;;;;;5203379;28;19905;-63
2022/08/30 10:59:45;;;;;;;;;;;32.60;99.90;;;;;;5178791;28;19901;-62
2022/08/30 11:02:28;;;;;;;;;;;34.60;99.90;;;;;;5191057;28;20095;-62
2022/08/30 11:05:10;;;;;;;;;;;35.20;99.90;;;;;;5167027;28;19909;-62
2022/08/30 11:07:59;;;;;;;;;;;35.60;99.90;;;;;;5170566;28;20212;-62
2022/08/30 11:10:36;;;;;;;;;;;34.40;99.90;;;;;;5200082;28;20221;-63
2022/08/30 11:13:13;;;;;;;;;;;35.30;99.90;;;;;;5194313;28;19917;-62
2022/08/30 11:16:03;;;;;;;;;;;36.40;99.90;;;;;;5195727;28;19909;-62
2022/08/30 11:18:48;;;;;;;;;;;35.80;99.90;;;;;;5197130;28;19901;-64
2022/08/30 11:21:24;;;;;;;;;;;35.00;99.90;;;;;;5194960;28;19905;-63
2022/08/30 11:24:07;;;;;;;;;;;34.80;99.90;;;;;;5195587;28;19911;-61
2022/08/30 11:26:44;;;;;;;;;;;35.60;99.90;;;;;;5179646;28;19981;-61
2022/08/30 11:29:33;;;;;;;;;;;36.60;99.90;;;;;;5196592;28;20105;-62
2022/08/30 11:32:17;;;;;;;;;;;37.00;99.90;;;;;;5193983;28;19911;-62
2022/08/30 11:34:55;;;;;;;;;;;37.20;99.90;;;;;;5198206;28;19909;-62
2022/08/30 11:37:38;;;;;;;;;;;37.10;99.90;;;;;;5196350;28;19907;-61
2022/08/30 11:40:18;;;;;;;;;;;38.30;99.90;;;;;;5188771;28;20008;-61
2022/08/30 11:42:53;;;;;;;;;;;36.80;99.90;;;;;;5194990;28;19911;-62
2022/08/30 11:45:24;;;;;;;;;;;35.80;99.90;;;;;;5198158;28;19908;-62
2022/08/30 11:48:02;;;;;;;;;;;35.90;99.90;;;;;;5198010;28;19900;-62
2022/08/30 11:50:37;;;;;;;;;;;35.90;99.90;;;;;;5194745;28;19916;-63
2022/08/30 11:53:17;;;;;;;;;;;36.90;99.90;;;;;;5179457;28;19909;-62
2022/08/30 11:55:48;;;;;;;;;;;36.80;99.90;;;;;;5196869;28;19915;-63
2022/08/30 11:58:34;;;;;;;;;;;35.00;99.90;;;;;;5199986;28;19909;-62
2022/08/30 12:01:24;;;;;;;;;;;34.60;99.90;;;;;;5195922;28;19911;-62
2022/08/30 12:04:19;;;;;;;;;;;35.00;99.90;;;;;;5196023;28;19924;-62
2022/08/30 12:06:49;;;;;;;;;;;36.30;99.90;;;;;;5106965;28;20139;-62
2022/08/30 12:09:23;;;;;;;;;;;36.10;99.90;;;;;;5133963;28;19902;-63
2022/08/30 12:12:01;;;;;;;;;;;36.90;99.90;;;;;;5154006;28;19905;-64
2022/08/30 12:14:32;;;;;;;;;;;37.20;99.90;;;;;;5188059;28;19909;-63
2022/08/30 12:20:05;;;;;;;;;;;36.10;99.90;;;;;;5176426;28;19901;-63
2022/08/30 12:22:39;;;;;;;;;;;32.60;99.90;;;;;;5189907;28;19905;-62
2022/08/30 12:25:20;;;;;;;;;;;33.10;99.90;;;;;;5194187;28;19907;-63
2022/08/30 12:28:07;;;;;;;;;;;34.70;99.90;;;;;;5195855;28;20175;-63
2022/08/30 12:30:39;;;;;;;;;;;36.40;99.90;;;;;;5194347;28;19901;-62
2022/08/30 12:33:12;;;;;;;;;;;36.20;99.90;;;;;;5192601;28;19912;-62
2022/08/30 12:35:46;;;;;;;;;;;34.30;99.90;;;;;;5181611;28;19905;-63
2022/08/30 12:38:18;;;;;;;;;;;33.50;99.90;;;;;;5166233;28;20078;-62
2022/08/30 12:40:55;;;;;;;;;;;34.10;99.90;;;;;;5176127;28;20197;-62
2022/08/30 12:43:36;;;;;;;;;;;34.50;99.90;;;;;;5195107;28;20178;-62
2022/08/30 12:46:10;;;;;;;;;;;33.80;99.90;;;;;;5179353;28;19905;-61
2022/08/30 12:48:46;;;;;;;;;;;33.10;99.90;;;;;;5174905;28;19901;-62
2022/08/30 12:51:26;;;;;;;;;;;31.60;99.90;;;;;;5177007;28;19901;-61
2022/08/30 12:54:05;;;;;;;;;;;30.70;99.90;;;;;;5194893;28;19913;-62
2022/08/30 12:57:03;;;;;;;;;;;30.10;99.90;;;;;;5196020;28;20132;-62
2022/08/30 12:59:37;;;;;;;;;;;31.60;99.90;;;;;;5194214;28;19901;-63
2022/08/30 13:02:12;;;;;;;;;;;32.60;99.90;;;;;;5193140;28;19911;-63
2022/08/30 13:04:46;;;;;;;;;;;34.50;99.90;;;;;;5187064;28;19916;-63
2022/08/30 13:07:25;;;;;;;;;;;36.00;99.90;;;;;;5195164;28;19901;-62
2022/08/30 13:10:18;;;;;;;;;;;35.50;99.90;;;;;;5194878;28;19901;-62
2022/08/30 13:13:03;;;;;;;;;;;36.10;99.90;;;;;;5197490;28;19919;-62
2022/08/30 13:15:40;;;;;;;;;;;36.20;99.90;;;;;;5195503;28;19919;-63
2022/08/30 13:18:21;;;;;;;;;;;38.20;98.90;;;;;;5195821;28;19919;-62
2022/08/30 13:21:08;;;;;;;;;;;38.00;98.90;;;;;;5178494;28;20175;-62
2022/08/30 13:23:39;;;;;;;;;;;36.60;98.80;;;;;;5195047;28;20236;-62
2022/08/30 13:26:13;;;;;;;;;;;34.70;99.90;;;;;;5178580;28;19901;-62
2022/08/30 13:28:45;;;;;;;;;;;33.70;99.90;;;;;;5195663;28;20228;-62
2022/08/30 13:31:16;;;;;;;;;;;33.80;99.90;;;;;;5194768;28;19901;-63
2022/08/30 13:33:51;;;;;;;;;;;34.00;99.90;;;;;;5194357;28;20110;-61
2022/08/30 13:36:29;;;;;;;;;;;33.30;99.90;;;;;;5197199;28;19905;-62
2022/08/30 13:39:04;;;;;;;;;;;32.90;99.90;;;;;;5197382;28;19907;-62
2022/08/30 13:41:39;;;;;;;;;;;33.40;99.90;;;;;;5198902;28;19927;-62
2022/08/30 13:44:12;;;;;;;;;;;34.60;99.70;;;;;;5198685;28;19904;-68
2022/08/30 13:46:48;;;;;;;;;;;34.50;99.90;;;;;;5196920;28;20086;-62
2022/08/30 13:49:22;;;;;;;;;;;35.70;98.80;;;;;;5198762;28;19901;-62
2022/08/30 13:51:58;;;;;;;;;;;34.60;99.60;;;;;;5198370;28;20269;-62
2022/08/30 13:54:29;;;;;;;;;;;32.80;99.90;;;;;;5198553;28;20113;-62
2022/08/30 13:57:01;;;;;;;;;;;33.90;99.70;;;;;;5195880;28;20091;-63
2022/08/30 13:59:33;;;;;;;;;;;34.70;99.30;;;;;;5181063;28;19912;-63
2022/08/30 14:02:08;;;;;;;;;;;34.10;99.50;;;;;;5175776;28;19912;-63
2022/08/30 14:04:42;;;;;;;;;;;33.50;99.90;;;;;;5188018;28;19913;-62
2022/08/30 14:07:16;;;;;;;;;;;33.90;99.90;;;;;;5196326;28;19912;-62
2022/08/30 14:09:49;;;;;;;;;;;32.90;99.90;;;;;;5203456;28;19901;-62
2022/08/30 14:12:22;;;;;;;;;;;32.20;99.90;;;;;;5197882;28;19901;-61
2022/08/30 14:14:53;;;;;;;;;;;31.70;99.90;;;;;;5198482;28;19923;-63
2022/08/30 14:17:29;;;;;;;;;;;32.60;99.90;;;;;;5198804;28;20218;-62
2022/08/30 14:20:00;;;;;;;;;;;34.20;99.90;;;;;;5197441;28;19900;-63
2022/08/30 14:22:31;;;;;;;;;;;34.80;98.70;;;;;;5192017;28;19909;-62
2022/08/30 14:25:07;;;;;;;;;;;35.70;98.30;;;;;;5198644;28;19940;-62
2022/08/30 14:27:41;;;;;;;;;;;34.90;98.50;;;;;;5164445;28;19901;-62
2022/08/30 14:30:14;;;;;;;;;;;34.90;98.40;;;;;;5178426;28;19901;-62
2022/08/30 14:32:46;;;;;;;;;;;34.30;98.90;;;;;;5197241;28;19915;-62
2022/08/30 14:35:19;;;;;;;;;;;34.10;99.10;;;;;;5196570;28;20347;-61
2022/08/30 14:37:56;;;;;;;;;;;33.40;99.40;;;;;;5195569;28;19923;-61
2022/08/30 14:40:27;;;;;;;;;;;32.00;99.90;;;;;;5198399;28;19901;-62
2022/08/30 14:42:58;;;;;;;;;;;31.80;99.90;;;;;;5194057;28;20170;-61
2022/08/30 14:45:30;;;;;;;;;;;32.50;99.90;;;;;;5181961;28;19901;-62
2022/08/30 14:48:05;;;;;;;;;;;32.20;99.90;;;;;;5182507;28;19905;-63
2022/08/30 14:50:38;;;;;;;;;;;32.30;99.90;;;;;;5198211;28;19901;-64
2022/08/30 14:53:12;;;;;;;;;;;31.60;99.90;;;;;;5200027;28;19917;-62
2022/08/30 14:55:45;;;;;;;;;;;32.30;99.90;;;;;;5197961;28;19907;-61
2022/08/30 14:58:18;;;;;;;;;;;31.50;99.90;;;;;;5194757;28;19900;-62
2022/08/30 15:00:50;;;;;;;;;;;31.20;99.90;;;;;;5197559;28;20338;-64
2022/08/30 15:03:24;;;;;;;;;;;32.10;99.90;;;;;;5192157;28;19931;-63
2022/08/30 15:05:57;;;;;;;;;;;32.70;99.90;;;;;;5185710;28;19909;-62
2022/08/30 15:08:28;;;;;;;;;;;32.70;99.90;;;;;;5210035;28;19904;-62